Skip Navigation Links
NOAA logo - Click to go to the NOAA homepage
NOAA's National Weather Service
Alaska Aviation Weather Unit
  NWS logo - Click to go to the NWS homepage
Left Navbar Graphic     09 AKDT = 17 GMT

   
NOAA is celebrating 200 years of science, service, and stewardship. Visit the NOAA 200th celebration Web site to learn more.
USA.gov is the U.S. Government's official Web portal to all Federal, state and local government Web resources and services.
Facebook
NWS on Facebook

Important Change Regarding the AAWU Web Presence

 

Over the last several months, the AAWU has been working to navigate its webpages to a nationally supported server. Security, as well as other needs, have necessitated the change.  In the process, we have made an effort to enhance the functionality of our website, as well as some of our products. As of June 20, 2017, aawu.arh.noaa.gov will be discontinued. The new AAWU web address is weather.gov/aawu. It is now live and will run in-parallel with the old site until it is discontinued. Please send any feedback or questions regarding the new webpages to nws.ar.aawu.webauthors@noaa.gov.  Thank you for your patience during this time of transition.
AAWU Home :: Display TAF Add Bookmark
TAF CYPR 271238Z 2713/2801 10005KT 6SM BR BKN009 TEMPO 2713/2716 1SM
     BR BKN003
    FM271600 VRB03KT P6SM SCT009 TEMPO 2716/2718 2SM BR BKN005
    FM271800 29006KT P6SM FEW012
    RMK FCST BASED ON AUTO OBS. NXT FCST BY 271900Z=

METAR CYPR 271100Z AUTO 09005KT 6SM BR OVC009 08/07 A3014 RMK SLP209= SPECI CYPR 271101Z AUTO 09005KT 5SM BR OVC009 08/07 A3014 RMK SLP209= METAR CYPR 271200Z AUTO 11005KT 5SM BR OVC007 08/08 A3014 RMK SLP209= METAR CYPR 271300Z AUTO 07007KT 4SM BR OVC007 08/08 A3014 RMK SLP209= SPECI CYPR 271325Z AUTO 07004KT 3SM BR OVC005 08/08 A3015 RMK SLP211= SPECI CYPR 271329Z AUTO 07005KT 2 1/2SM BR OVC005 08/08 A3015 RMK SLP212= SPECI CYPR 271351Z AUTO 08005KT 1 3/4SM BR OVC003 08/08 A3015 RMK SLP212= METAR CYPR 271400Z AUTO 08004KT 1 1/2SM BR OVC003 08/08 A3015 RMK SLP212= METAR CYPR 271500Z AUTO 03002KT 3/4SM BR OVC003 08/08 A3016 RMK SLP214= SPECI CYPR 271512Z AUTO VRB02KT 2SM BR OVC003 08/08 A3016 RMK VIS VRB 1-3 SLP215= SPECI CYPR 271515Z AUTO 00000KT 3SM BR OVC003 08/08 A3016 RMK SLP215= SPECI CYPR 271520Z AUTO VRB03KT 6SM BR OVC003 09/08 A3016 RMK SLP215= METAR CYPR 271600Z AUTO 34006KT 9SM OVC003 10/09 A3016 RMK SLP215= METAR CYPR 271700Z AUTO 33004KT 280V010 9SM OVC005 11/09 A3017 RMK SLP217= SPECI CYPR 271703Z AUTO 35006KT 280V010 9SM OVC007 11/09 A3017 RMK SLP217=
 Alaska TAF Map

NOAA's National Weather Service
Alaska Aviation Weather Unit
6930 Sand Lake Road
Anchorage, AK 99502-1845
Disclaimer
Credits
Glossary
Privacy Policy
About Us
Career Opportunities
Contact AAWU Internet Services Site last modified: April, 17th 2012